createdAt,value
2023-04-02T00:02:58.931Z,99359.25
2023-04-02T00:06:02.782Z,99367.50
2023-04-02T00:09:11.371Z,99358.16
2023-04-02T00:12:18.388Z,99354.94
2023-04-02T00:15:21.201Z,99351.59
2023-04-02T00:18:25.650Z,99355.00
2023-04-02T00:21:32.438Z,99348.53
2023-04-02T00:24:35.370Z,99349.88
2023-04-02T00:27:38.118Z,99354.31
2023-04-02T00:30:51.695Z,99345.75
2023-04-02T00:33:54.832Z,99345.38
2023-04-02T00:36:58.421Z,99346.84
2023-04-02T00:40:07.305Z,99344.38
2023-04-02T00:43:16.817Z,99338.41
2023-04-02T00:46:30.282Z,99334.84
2023-04-02T00:49:43.190Z,99335.84
2023-04-02T00:52:50.924Z,99325.06
2023-04-02T00:55:54.455Z,99326.34
2023-04-02T00:58:58.788Z,99339.09
2023-04-02T01:02:29.269Z,99334.53
2023-04-02T01:05:35.613Z,99331.44
2023-04-02T01:08:42.004Z,99334.59
2023-04-02T01:11:51.039Z,99336.19
2023-04-02T01:15:10.019Z,99332.72
2023-04-02T01:18:33.694Z,99331.28
2023-04-02T01:22:03.709Z,99331.56
2023-04-02T01:25:06.824Z,99327.97
2023-04-02T01:28:36.482Z,99330.94
2023-04-02T01:31:40.718Z,99325.06
2023-04-02T01:34:45.911Z,99323.16
2023-04-02T01:38:10.590Z,99326.13
2023-04-02T01:41:32.704Z,99331.13
2023-04-02T01:44:42.061Z,99333.44
2023-04-02T01:47:45.293Z,99331.84
2023-04-02T01:50:51.522Z,99342.00
2023-04-02T01:53:55.093Z,99342.97
2023-04-02T01:56:58.341Z,99341.66
2023-04-02T02:00:08.263Z,99341.72
2023-04-02T02:03:16.866Z,99339.75
2023-04-02T02:06:20.228Z,99340.47
2023-04-02T02:09:27.411Z,99339.22
2023-04-02T02:12:31.273Z,99344.50
2023-04-02T02:15:34.428Z,99343.16
2023-04-02T02:18:37.561Z,99335.94
2023-04-02T02:21:44.573Z,99335.94
2023-04-02T02:24:48.296Z,99339.88
2023-04-02T02:27:53.633Z,99348.00
2023-04-02T02:31:05.170Z,99339.97
2023-04-02T02:34:28.415Z,99349.31
2023-04-02T02:37:39.554Z,99347.19
2023-04-02T02:40:46.326Z,99344.25
2023-04-02T02:44:08.446Z,99349.41
2023-04-02T02:47:18.663Z,99354.13
2023-04-02T02:50:25.904Z,99360.66
2023-04-02T02:53:30.504Z,99358.25
2023-04-02T02:56:37.373Z,99363.06
2023-04-02T02:59:41.848Z,99364.41
2023-04-02T03:02:45.893Z,99365.53
2023-04-02T03:05:54.948Z,99373.75
2023-04-02T03:08:58.483Z,99376.72
2023-04-02T03:12:24.636Z,99372.31
2023-04-02T03:15:55.795Z,99374.19
2023-04-02T03:19:07.894Z,99380.09
2023-04-02T03:22:16.566Z,99370.19
2023-04-02T03:25:26.723Z,99368.22
2023-04-02T03:28:35.762Z,99374.88
2023-04-02T03:31:44.969Z,99369.56
2023-04-02T03:34:55.151Z,99363.91
2023-04-02T03:38:13.812Z,99371.25
2023-04-02T03:41:21.765Z,99377.06
2023-04-02T03:44:30.720Z,99376.88
2023-04-02T03:47:46.062Z,99377.94
2023-04-02T03:51:05.779Z,99387.16
2023-04-02T03:54:15.721Z,99391.34
2023-04-02T03:57:27.749Z,99392.69
2023-04-02T04:01:05.933Z,99390.88
2023-04-02T04:04:18.022Z,99394.66
2023-04-02T04:07:34.526Z,99396.53
2023-04-02T04:10:37.437Z,99393.56
2023-04-02T04:13:50.349Z,99391.78
2023-04-02T04:17:15.634Z,99395.53
2023-04-02T04:20:26.170Z,99401.53
2023-04-02T04:23:41.191Z,99398.75
2023-04-02T04:26:57.671Z,99401.06
2023-04-02T04:30:07.965Z,99406.31
2023-04-02T04:33:23.291Z,99416.03
2023-04-02T04:36:37.097Z,99422.81
2023-04-02T04:39:54.538Z,99423.03
2023-04-02T04:43:03.088Z,99435.69
2023-04-02T04:46:12.411Z,99426.94
2023-04-02T04:49:36.108Z,99434.25
2023-04-02T04:52:42.648Z,99436.47
2023-04-02T04:55:48.483Z,99442.31
2023-04-02T04:58:54.336Z,99445.84
2023-04-02T05:02:03.687Z,99455.88
2023-04-02T05:05:19.082Z,99453.53
2023-04-02T05:08:30.701Z,99459.44
2023-04-02T05:11:47.487Z,99464.16
2023-04-02T05:14:50.692Z,99467.59
2023-04-02T05:17:53.435Z,99468.38
2023-04-02T05:21:08.160Z,99471.16
2023-04-02T05:24:31.605Z,99468.81
2023-04-02T05:27:47.779Z,99477.66
2023-04-02T05:30:54.408Z,99479.16
2023-04-02T05:33:59.933Z,99470.50
2023-04-02T05:37:06.971Z,99473.53
2023-04-02T05:40:31.174Z,99475.38
2023-04-02T05:43:39.325Z,99481.09
2023-04-02T05:46:54.536Z,99483.50
2023-04-02T05:50:12.478Z,99481.50
2023-04-02T05:53:23.706Z,99487.25
2023-04-02T05:56:41.763Z,99489.53
2023-04-02T05:59:51.121Z,99487.81
2023-04-02T06:03:07.672Z,99489.34
2023-04-02T06:06:29.621Z,99499.81
2023-04-02T06:09:42.379Z,99505.06
2023-04-02T06:12:58.296Z,99505.75
2023-04-02T06:16:03.199Z,99514.50
2023-04-02T06:19:16.635Z,99509.53
2023-04-02T06:22:32.002Z,99505.41
2023-04-02T06:25:40.058Z,99513.63
2023-04-02T06:28:58.253Z,99517.06
2023-04-02T06:32:04.876Z,99515.97
2023-04-02T06:35:18.020Z,99522.13
2023-04-02T06:38:31.168Z,99522.19
2023-04-02T06:41:34.277Z,99519.38
2023-04-02T06:44:56.374Z,99519.38
2023-04-02T06:48:19.475Z,99521.06
2023-04-02T06:51:30.495Z,99527.56
2023-04-02T06:54:33.486Z,99533.44
2023-04-02T06:57:43.021Z,99544.72
2023-04-02T07:00:48.449Z,99537.66
2023-04-02T07:03:59.615Z,99541.38
2023-04-02T07:07:13.863Z,99548.81
2023-04-02T07:10:20.577Z,99551.25
2023-04-02T07:13:25.202Z,99545.78
2023-04-02T07:16:31.171Z,99548.41
2023-04-02T07:19:34.112Z,99546.56
2023-04-02T07:22:37.242Z,99554.19
2023-04-02T07:25:40.256Z,99559.25
2023-04-02T07:28:43.671Z,99560.63
2023-04-02T07:31:46.813Z,99559.84
2023-04-02T07:34:49.721Z,99564.44
2023-04-02T07:37:53.025Z,99569.03
2023-04-02T07:40:56.021Z,99559.03
2023-04-02T07:43:59.205Z,99567.28
2023-04-02T07:47:02.106Z,99563.19
2023-04-02T07:50:05.716Z,99560.63
2023-04-02T07:53:16.946Z,99579.66
2023-04-02T07:56:20.141Z,99573.22
2023-04-02T07:59:23.020Z,99585.63
2023-04-02T08:02:26.283Z,99593.28
2023-04-02T08:05:29.381Z,99581.69
2023-04-02T08:08:32.090Z,99576.06
2023-04-02T08:11:35.097Z,99585.88
2023-04-02T08:14:37.961Z,99573.66
2023-04-02T08:17:40.779Z,99580.09
2023-04-02T08:20:43.776Z,99582.09
2023-04-02T08:23:46.503Z,99579.81
2023-04-02T08:26:51.641Z,99585.19
2023-04-02T08:29:54.449Z,99578.06
2023-04-02T08:32:57.237Z,99577.44
2023-04-02T08:36:00.059Z,99588.69
2023-04-02T08:39:04.689Z,99584.00
2023-04-02T08:42:27.081Z,99588.16
2023-04-02T08:45:32.695Z,99597.59
2023-04-02T08:48:40.755Z,99587.78
2023-04-02T08:51:47.188Z,99593.06
2023-04-02T08:54:50.211Z,99592.84
2023-04-02T08:58:14.149Z,99598.88
2023-04-02T09:01:37.908Z,99594.97
2023-04-02T09:04:41.794Z,99598.28
2023-04-02T09:07:47.446Z,99602.44
2023-04-02T09:11:25.216Z,99600.38
2023-04-02T09:15:06.293Z,99610.09
2023-04-02T09:18:16.601Z,99609.72
2023-04-02T09:21:22.630Z,99612.88
2023-04-02T09:24:25.625Z,99620.84
2023-04-02T09:27:34.554Z,99618.78
2023-04-02T09:30:54.890Z,99617.34
2023-04-02T09:33:57.817Z,99620.97
2023-04-02T09:37:09.956Z,99625.47
2023-04-02T09:40:20.366Z,99622.22
2023-04-02T09:43:25.736Z,99630.03
2023-04-02T09:46:28.550Z,99620.97
2023-04-02T09:49:34.472Z,99625.91
2023-04-02T09:52:37.606Z,99622.22
2023-04-02T09:55:40.723Z,99628.50
2023-04-02T09:58:45.352Z,99619.66
2023-04-02T10:02:02.020Z,99627.06
2023-04-02T10:05:07.030Z,99626.75
2023-04-02T10:08:28.266Z,99626.09
2023-04-02T10:11:46.115Z,99622.72
2023-04-02T10:14:51.254Z,99634.56
2023-04-02T10:18:07.116Z,99620.59
2023-04-02T10:21:15.774Z,99614.13
2023-04-02T10:24:19.095Z,99618.34
2023-04-02T10:27:33.602Z,99616.50
2023-04-02T10:30:57.912Z,99623.84
2023-04-02T10:34:04.793Z,99624.63
2023-04-02T10:37:33.407Z,99625.63
2023-04-02T10:40:42.904Z,99639.31
2023-04-02T10:44:06.169Z,99621.31
2023-04-02T10:47:28.055Z,99634.72
2023-04-02T10:50:48.249Z,99622.41
2023-04-02T10:54:30.873Z,99618.97
2023-04-02T10:57:42.085Z,99609.72
2023-04-02T11:00:46.891Z,99620.13
2023-04-02T11:04:17.191Z,99616.47
2023-04-02T11:07:24.974Z,99613.28
2023-04-02T11:10:31.642Z,99621.16
2023-04-02T11:13:52.946Z,99628.69
2023-04-02T11:17:03.013Z,99630.22
2023-04-02T11:20:43.790Z,99619.34
2023-04-02T11:24:01.274Z,99631.66
2023-04-02T11:27:05.207Z,99619.63
2023-04-02T11:30:28.647Z,99611.03
2023-04-02T11:33:38.189Z,99618.19
2023-04-02T11:36:51.055Z,99617.31
2023-04-02T11:39:56.932Z,99632.78
2023-04-02T11:43:45.921Z,99624.75
2023-04-02T11:46:48.792Z,99609.78
2023-04-02T11:50:04.498Z,99626.66
2023-04-02T11:53:14.782Z,99623.38
2023-04-02T11:56:18.235Z,99623.19
2023-04-02T11:59:42.681Z,99617.38
2023-04-02T12:03:28.571Z,99623.88
2023-04-02T12:06:48.701Z,99624.00
2023-04-02T12:09:55.627Z,99616.31
2023-04-02T12:12:59.012Z,99608.72
2023-04-02T12:16:02.857Z,99611.59
2023-04-02T12:19:09.519Z,99615.38
2023-04-02T12:22:28.581Z,99611.38
2023-04-02T12:25:34.621Z,99607.47
2023-04-02T12:28:38.370Z,99606.88
2023-04-02T12:31:46.575Z,99594.69
2023-04-02T12:34:51.471Z,99594.59
2023-04-02T12:37:54.521Z,99585.22
2023-04-02T12:40:59.982Z,99588.69
2023-04-02T12:44:05.191Z,99577.13
2023-04-02T12:47:07.979Z,99570.53
2023-04-02T12:50:15.541Z,99578.88
2023-04-02T12:53:29.595Z,99574.34
2023-04-02T12:56:32.358Z,99580.41
2023-04-02T12:59:36.740Z,99577.47
2023-04-02T13:02:48.866Z,99571.19
2023-04-02T13:05:56.300Z,99567.47
2023-04-02T13:09:01.342Z,99570.88
2023-04-02T13:12:04.751Z,99566.19
2023-04-02T13:15:18.131Z,99561.78
2023-04-02T13:18:22.951Z,99562.91
2023-04-02T13:21:28.424Z,99569.16
2023-04-02T13:24:33.343Z,99569.06
2023-04-02T13:27:36.111Z,99571.88
2023-04-02T13:30:39.017Z,99567.59
2023-04-02T13:33:41.971Z,99571.31
2023-04-02T13:36:45.739Z,99565.31
2023-04-02T13:39:48.736Z,99570.34
2023-04-02T13:42:51.594Z,99564.69
2023-04-02T13:45:57.600Z,99566.09
2023-04-02T13:49:01.078Z,99577.69
2023-04-02T13:52:05.368Z,99568.22
2023-04-02T13:55:10.360Z,99563.09
2023-04-02T13:58:13.408Z,99574.41
2023-04-02T14:01:17.409Z,99567.63
2023-04-02T14:04:26.215Z,99565.50
2023-04-02T14:07:39.729Z,99559.41
2023-04-02T14:11:04.216Z,99560.50
2023-04-02T14:14:21.147Z,99570.19
2023-04-02T14:17:47.586Z,99551.56
2023-04-02T14:21:05.893Z,99568.59
2023-04-02T14:24:31.438Z,99566.66
2023-04-02T14:27:58.148Z,99558.69
2023-04-02T14:31:22.100Z,99564.63
2023-04-02T14:34:47.196Z,99563.38
2023-04-02T14:37:57.882Z,99562.06
2023-04-02T14:41:08.842Z,99554.56
2023-04-02T14:44:12.593Z,99560.28
2023-04-02T14:47:19.045Z,99558.25
2023-04-02T14:50:38.184Z,99569.47
2023-04-02T14:53:53.048Z,99559.47
2023-04-02T14:57:04.372Z,99565.75
2023-04-02T15:00:22.784Z,99561.81
2023-04-02T15:03:32.798Z,99569.81
2023-04-02T15:06:44.646Z,99572.75
2023-04-02T15:10:14.367Z,99574.06
2023-04-02T15:13:22.961Z,99570.25
2023-04-02T15:16:26.909Z,99582.81
2023-04-02T15:19:30.089Z,99578.78
2023-04-02T15:22:43.193Z,99579.00
2023-04-02T15:25:45.985Z,99581.00
2023-04-02T15:28:59.264Z,99584.06
2023-04-02T15:32:25.873Z,99586.31
2023-04-02T15:35:54.795Z,99584.81
2023-04-02T15:39:15.380Z,99592.06
2023-04-02T15:42:29.253Z,99590.91
2023-04-02T15:45:41.169Z,99594.59
2023-04-02T15:49:04.369Z,99599.59
2023-04-02T15:52:33.477Z,99606.63
2023-04-02T15:55:54.895Z,99619.91
2023-04-02T15:59:16.093Z,99621.75
2023-04-02T16:02:36.814Z,99635.44
2023-04-02T16:05:45.733Z,99637.03
2023-04-02T16:09:04.736Z,99635.44
2023-04-02T16:12:19.651Z,99663.09
2023-04-02T16:15:28.745Z,99649.06
2023-04-02T16:18:50.728Z,99662.09
2023-04-02T16:22:03.168Z,99657.88
2023-04-02T16:25:22.413Z,99667.91
2023-04-02T16:28:35.144Z,99666.84
2023-04-02T16:31:56.312Z,99664.44
2023-04-02T16:35:41.608Z,99673.88
2023-04-02T16:38:58.979Z,99675.06
2023-04-02T16:42:09.037Z,99684.63
2023-04-02T16:45:48.447Z,99697.66
2023-04-02T16:49:01.692Z,99689.41
2023-04-02T16:52:54.514Z,99691.22
2023-04-02T16:56:03.171Z,99696.16
2023-04-02T16:59:26.557Z,99696.53
2023-04-02T17:02:52.728Z,99698.13
2023-04-02T17:06:05.837Z,99698.31
2023-04-02T17:09:18.129Z,99695.03
2023-04-02T17:12:47.039Z,99695.22
2023-04-02T17:16:01.968Z,99706.78
2023-04-02T17:19:13.813Z,99704.31
2023-04-02T17:22:20.458Z,99714.06
2023-04-02T17:25:27.120Z,99713.47
2023-04-02T17:28:36.962Z,99719.66
2023-04-02T17:31:42.233Z,99713.59
2023-04-02T17:34:45.401Z,99727.03
2023-04-02T17:38:07.960Z,99730.47
2023-04-02T17:41:36.432Z,99736.00
2023-04-02T17:44:48.280Z,99748.41
2023-04-02T17:47:56.776Z,99754.78
2023-04-02T17:51:11.641Z,99752.81
2023-04-02T17:54:37.529Z,99758.75
2023-04-02T17:58:01.713Z,99764.56
2023-04-02T18:01:18.153Z,99770.97
2023-04-02T18:04:42.684Z,99775.53
2023-04-02T18:08:02.688Z,99776.53
2023-04-02T18:11:11.695Z,99780.13
2023-04-02T18:14:25.646Z,99793.72
2023-04-02T18:18:04.747Z,99793.47
2023-04-02T18:21:29.211Z,99803.63
2023-04-02T18:24:59.411Z,99796.41
2023-04-02T18:28:04.994Z,99809.84
2023-04-02T18:31:19.676Z,99803.75
2023-04-02T18:34:29.482Z,99815.59
2023-04-02T18:37:55.136Z,99816.31
2023-04-02T18:41:26.697Z,99819.13
2023-04-02T18:45:04.132Z,99815.88
2023-04-02T18:48:29.083Z,99821.06
2023-04-02T18:51:36.898Z,99824.59
2023-04-02T18:54:45.418Z,99831.41
2023-04-02T18:58:19.930Z,99837.78
2023-04-02T19:01:30.777Z,99837.72
2023-04-02T19:04:38.316Z,99840.66
2023-04-02T19:07:44.316Z,99851.44
2023-04-02T19:10:53.414Z,99857.78
2023-04-02T19:14:01.439Z,99853.69
2023-04-02T19:17:10.917Z,99865.19
2023-04-02T19:20:28.992Z,99866.44
2023-04-02T19:24:00.896Z,99872.81
2023-04-02T19:27:27.383Z,99883.72
2023-04-02T19:30:51.721Z,99878.81
2023-04-02T19:34:15.976Z,99886.69
2023-04-02T19:37:24.827Z,99891.78
2023-04-02T19:40:54.888Z,99901.69
2023-04-02T19:43:58.134Z,99912.88
2023-04-02T19:47:01.196Z,99912.50
2023-04-02T19:50:05.019Z,99908.19
2023-04-02T19:53:08.241Z,99927.50
2023-04-02T19:56:11.426Z,99922.84
2023-04-02T19:59:17.921Z,99950.47
2023-04-02T20:02:21.788Z,99963.66
2023-04-02T20:05:25.920Z,99941.13
2023-04-02T20:08:30.569Z,99941.03
2023-04-02T20:11:35.325Z,99970.00
2023-04-02T20:14:39.631Z,99961.47
2023-04-02T20:17:42.637Z,99972.00
2023-04-02T20:20:49.132Z,99978.03
2023-04-02T20:23:55.486Z,99981.13
2023-04-02T20:26:58.422Z,99987.44
2023-04-02T20:30:01.532Z,99973.03
2023-04-02T20:33:04.576Z,99994.91
2023-04-02T20:36:10.881Z,99980.34
2023-04-02T20:39:19.338Z,99981.59
2023-04-02T20:42:22.819Z,99982.91
2023-04-02T20:45:27.951Z,99994.34
2023-04-02T20:48:32.386Z,99993.81
2023-04-02T20:51:35.158Z,100002.34
2023-04-02T20:54:53.363Z,99997.03
2023-04-02T20:57:56.630Z,99998.19
2023-04-02T21:01:19.630Z,99998.16
2023-04-02T21:04:22.493Z,100013.88
2023-04-02T21:07:25.481Z,99999.00
2023-04-02T21:10:28.205Z,100048.16
2023-04-02T21:13:32.332Z,100017.31
2023-04-02T21:16:35.423Z,100017.19
2023-04-02T21:19:40.728Z,100020.03
2023-04-02T21:22:43.673Z,100022.56
2023-04-02T21:25:55.496Z,100017.97
2023-04-02T21:28:58.651Z,100036.91
2023-04-02T21:32:03.597Z,100050.03
2023-04-02T21:35:13.951Z,100030.94
2023-04-02T21:38:16.660Z,100041.22
2023-04-02T21:41:28.979Z,100057.41
2023-04-02T21:44:31.825Z,100029.94
2023-04-02T21:47:34.602Z,100041.50
2023-04-02T21:50:37.683Z,100049.44
2023-04-02T21:53:41.550Z,100040.34
2023-04-02T21:56:46.490Z,100050.44
2023-04-02T21:59:49.203Z,100057.13
2023-04-02T22:02:52.168Z,100057.38
2023-04-02T22:06:20.052Z,100067.84
2023-04-02T22:09:24.931Z,100060.66
2023-04-02T22:12:27.891Z,100070.31
2023-04-02T22:15:33.885Z,100070.50
2023-04-02T22:18:38.309Z,100075.09
2023-04-02T22:21:42.442Z,100072.03
2023-04-02T22:24:45.581Z,100071.78
2023-04-02T22:27:52.064Z,100076.56
2023-04-02T22:30:56.396Z,100058.69
2023-04-02T22:33:59.711Z,100056.53
2023-04-02T22:37:02.650Z,100071.59
2023-04-02T22:40:05.867Z,100067.81
2023-04-02T22:43:08.636Z,100071.47
2023-04-02T22:46:13.776Z,100053.75
2023-04-02T22:49:19.579Z,100049.84
2023-04-02T22:52:22.453Z,100037.50
2023-04-02T22:55:25.209Z,100052.94
2023-04-02T22:58:28.218Z,100046.34
2023-04-02T23:01:33.524Z,100043.47
2023-04-02T23:04:36.898Z,100043.91
2023-04-02T23:07:39.726Z,100049.31
2023-04-02T23:10:42.453Z,100049.06
2023-04-02T23:13:47.208Z,100049.06
2023-04-02T23:16:50.124Z,100054.47
2023-04-02T23:19:52.872Z,100052.72
2023-04-02T23:22:55.857Z,100052.03
2023-04-02T23:26:17.510Z,100057.31
2023-04-02T23:29:20.642Z,100070.34
2023-04-02T23:32:24.348Z,100057.06
2023-04-02T23:35:28.231Z,100087.13
2023-04-02T23:38:31.342Z,100075.72
2023-04-02T23:41:34.175Z,100084.00
2023-04-02T23:44:37.012Z,100093.88
2023-04-02T23:47:39.813Z,100106.88
2023-04-02T23:50:44.332Z,100090.50
2023-04-02T23:53:47.821Z,100097.91
2023-04-02T23:56:50.745Z,100101.19
2023-04-02T23:59:54.500Z,100115.53
